createdAt,value
2018-07-31T00:01:18.407Z,3.53
2018-07-31T00:03:46.403Z,3.77
2018-07-31T00:06:18.868Z,3.80
2018-07-31T00:08:47.291Z,3.53
2018-07-31T00:11:15.220Z,3.40
2018-07-31T00:13:43.164Z,3.97
2018-07-31T00:16:11.104Z,3.40
2018-07-31T00:18:39.132Z,3.27
2018-07-31T00:21:07.337Z,3.80
2018-07-31T00:23:35.300Z,3.90
2018-07-31T00:26:03.260Z,4.03
2018-07-31T00:28:31.188Z,4.13
2018-07-31T00:30:59.115Z,3.80
2018-07-31T00:33:27.040Z,3.73
2018-07-31T00:35:55.892Z,3.63
2018-07-31T00:38:23.937Z,3.90
2018-07-31T00:40:51.852Z,3.93
2018-07-31T00:43:19.797Z,4.00
2018-07-31T00:45:47.725Z,4.07
2018-07-31T00:48:22.333Z,4.67
2018-07-31T00:50:50.281Z,5.40
2018-07-31T00:53:18.568Z,5.40
2018-07-31T00:55:46.519Z,5.17
2018-07-31T00:58:14.528Z,5.63
2018-07-31T01:00:42.449Z,5.50
2018-07-31T01:03:10.385Z,5.13
2018-07-31T01:05:38.361Z,5.30
2018-07-31T01:08:06.305Z,5.97
2018-07-31T01:10:34.357Z,5.80
2018-07-31T01:13:02.297Z,6.20
2018-07-31T01:15:30.273Z,6.40
2018-07-31T01:17:58.285Z,6.63
2018-07-31T01:20:26.217Z,7.00
2018-07-31T01:22:54.161Z,6.80
2018-07-31T01:25:22.105Z,7.20
2018-07-31T01:27:50.046Z,8.00
2018-07-31T01:30:17.977Z,7.97
2018-07-31T01:32:46.409Z,8.00
2018-07-31T01:35:14.365Z,8.27
2018-07-31T01:37:42.293Z,8.27
2018-07-31T01:40:10.265Z,8.40
2018-07-31T01:42:38.194Z,8.47
2018-07-31T01:45:06.129Z,9.40
2018-07-31T01:47:34.074Z,10.47
2018-07-31T01:50:02.026Z,9.97
2018-07-31T01:52:29.999Z,11.27
2018-07-31T01:54:57.929Z,11.50
2018-07-31T01:57:25.868Z,11.43
2018-07-31T01:59:53.831Z,12.40
2018-07-31T02:02:21.794Z,11.90
2018-07-31T02:04:49.870Z,12.73
2018-07-31T02:07:17.829Z,13.20
2018-07-31T02:09:46.523Z,12.57
2018-07-31T02:12:14.574Z,13.37
2018-07-31T02:14:42.531Z,14.13
2018-07-31T02:17:10.573Z,13.73
2018-07-31T02:19:38.462Z,14.37
2018-07-31T02:22:06.398Z,15.53
2018-07-31T02:24:34.382Z,14.90
2018-07-31T02:27:02.471Z,16.00
2018-07-31T02:29:35.875Z,16.10
2018-07-31T02:32:03.935Z,15.60
2018-07-31T02:34:31.874Z,16.17
2018-07-31T02:36:59.820Z,16.73
2018-07-31T02:39:27.799Z,16.37
2018-07-31T02:41:55.766Z,15.90
2018-07-31T02:44:23.694Z,17.70
2018-07-31T02:46:51.651Z,17.27
2018-07-31T02:49:19.615Z,17.73
2018-07-31T02:51:47.814Z,17.60
2018-07-31T02:54:15.750Z,17.60
2018-07-31T02:56:43.687Z,17.50
2018-07-31T02:59:11.655Z,18.23
2018-07-31T03:01:39.647Z,18.07
2018-07-31T03:04:07.658Z,18.30
2018-07-31T03:06:35.631Z,17.67
2018-07-31T03:09:04.651Z,17.73
2018-07-31T03:11:32.561Z,18.17
2018-07-31T03:14:00.515Z,17.37
2018-07-31T03:16:28.470Z,17.27
2018-07-31T03:18:56.404Z,17.90
2018-07-31T03:21:24.339Z,17.90
2018-07-31T03:23:52.263Z,16.90
2018-07-31T03:26:20.248Z,16.73
2018-07-31T03:28:48.219Z,17.83
2018-07-31T03:31:16.171Z,16.80
2018-07-31T03:33:44.804Z,16.13
2018-07-31T03:36:12.756Z,15.70
2018-07-31T03:38:40.803Z,16.10
2018-07-31T03:41:08.723Z,16.33
2018-07-31T03:43:36.987Z,16.47
2018-07-31T03:46:04.949Z,15.53
2018-07-31T03:48:33.050Z,15.37
2018-07-31T03:51:01.407Z,16.30
2018-07-31T03:53:30.771Z,15.80
2018-07-31T03:55:58.838Z,14.73
2018-07-31T03:58:26.803Z,15.20
2018-07-31T04:00:54.771Z,14.90
2018-07-31T04:03:22.703Z,14.90
2018-07-31T04:05:50.643Z,14.33
2018-07-31T04:08:18.587Z,13.87
2018-07-31T04:10:47.275Z,15.83
2018-07-31T04:13:15.286Z,14.17
2018-07-31T04:15:43.211Z,14.13
2018-07-31T04:18:11.164Z,13.40
2018-07-31T04:20:39.947Z,14.00
2018-07-31T04:23:07.996Z,13.53
2018-07-31T04:25:35.935Z,12.83
2018-07-31T04:28:03.928Z,12.37
2018-07-31T04:30:31.877Z,11.80
2018-07-31T04:32:59.795Z,12.83
2018-07-31T04:35:27.813Z,12.77
2018-07-31T04:37:57.902Z,12.50
2018-07-31T04:40:26.264Z,12.43
2018-07-31T04:42:54.429Z,11.53
2018-07-31T04:45:22.586Z,12.13
2018-07-31T04:47:50.757Z,12.33
2018-07-31T04:50:19.505Z,12.13
2018-07-31T04:52:48.142Z,11.50
2018-07-31T04:55:16.322Z,11.70
2018-07-31T04:57:44.566Z,11.27
2018-07-31T05:00:12.730Z,10.70
2018-07-31T05:02:40.889Z,10.57
2018-07-31T05:05:09.070Z,10.57
2018-07-31T05:07:39.369Z,10.60
2018-07-31T05:10:11.506Z,10.37
2018-07-31T05:12:40.390Z,10.57
2018-07-31T05:15:08.638Z,10.40
2018-07-31T05:17:37.961Z,10.27
2018-07-31T05:20:06.698Z,10.03
2018-07-31T05:22:34.910Z,9.50
2018-07-31T05:25:03.133Z,10.03
2018-07-31T05:27:31.359Z,9.70
2018-07-31T05:29:59.548Z,9.77
2018-07-31T05:32:35.571Z,10.03
2018-07-31T05:35:04.303Z,10.33
2018-07-31T05:37:32.510Z,9.77
2018-07-31T05:40:00.716Z,10.30
2018-07-31T05:42:28.912Z,10.00
2018-07-31T05:44:57.107Z,9.80
2018-07-31T05:47:25.283Z,10.03
2018-07-31T05:49:53.459Z,10.55
2018-07-31T05:52:21.644Z,9.90
2018-07-31T05:54:50.043Z,9.47
2018-07-31T05:57:18.298Z,9.37
2018-07-31T05:59:46.427Z,11.23
2018-07-31T06:02:15.132Z,10.33
2018-07-31T06:04:43.479Z,10.43
2018-07-31T06:07:11.740Z,10.43
2018-07-31T06:09:40.040Z,9.80
2018-07-31T06:12:08.196Z,9.53
2018-07-31T06:14:36.364Z,10.73
2018-07-31T06:17:04.552Z,10.47
2018-07-31T06:19:32.767Z,10.30
2018-07-31T06:22:00.912Z,9.73
2018-07-31T06:24:29.096Z,11.60
2018-07-31T06:26:57.390Z,10.58
2018-07-31T06:29:25.575Z,10.93
2018-07-31T06:31:53.827Z,10.53
2018-07-31T06:34:22.064Z,10.17
2018-07-31T06:36:50.372Z,10.53
2018-07-31T06:39:18.548Z,36.93
2018-07-31T06:41:46.793Z,11.47
2018-07-31T06:44:15.010Z,9.93
2018-07-31T06:46:43.273Z,10.70
2018-07-31T06:49:11.445Z,10.60
2018-07-31T06:51:39.608Z,10.70
2018-07-31T06:54:07.787Z,10.67
2018-07-31T06:56:35.989Z,10.40
2018-07-31T06:59:04.179Z,9.37
2018-07-31T07:01:32.412Z,8.93
2018-07-31T07:04:00.604Z,8.13
2018-07-31T07:06:28.960Z,8.10
2018-07-31T07:08:57.152Z,8.57
2018-07-31T07:11:25.361Z,8.10
2018-07-31T07:13:53.560Z,7.90
2018-07-31T07:16:21.809Z,7.40
2018-07-31T07:18:50.033Z,7.70
2018-07-31T07:21:18.360Z,7.43
2018-07-31T07:23:46.557Z,7.03
2018-07-31T07:26:14.701Z,7.50
2018-07-31T07:28:42.917Z,6.27
2018-07-31T07:31:11.121Z,6.73
2018-07-31T07:33:39.379Z,7.50
2018-07-31T07:36:07.549Z,6.43
2018-07-31T07:38:35.845Z,5.90
2018-07-31T07:41:04.638Z,7.30
2018-07-31T07:43:32.841Z,7.20
2018-07-31T07:46:01.033Z,7.10
2018-07-31T07:48:29.340Z,7.57
2018-07-31T07:50:57.500Z,6.50
2018-07-31T07:53:25.753Z,7.67
2018-07-31T07:55:54.029Z,6.67
2018-07-31T07:58:22.217Z,6.15
2018-07-31T08:00:50.492Z,6.35
2018-07-31T08:03:18.776Z,6.40
2018-07-31T08:05:46.965Z,5.78
2018-07-31T08:08:15.189Z,6.10
2018-07-31T08:10:43.849Z,5.65
2018-07-31T08:13:12.361Z,5.47
2018-07-31T08:15:40.658Z,5.67
2018-07-31T08:18:08.849Z,6.30
2018-07-31T08:20:37.031Z,5.08
2018-07-31T08:23:05.309Z,5.42
2018-07-31T08:25:33.536Z,5.75
2018-07-31T08:28:01.798Z,5.47
2018-07-31T08:30:29.998Z,5.00
2018-07-31T08:32:58.242Z,4.87
2018-07-31T08:35:27.154Z,4.42
2018-07-31T08:37:55.373Z,4.25
2018-07-31T08:40:23.581Z,4.20
2018-07-31T08:42:51.813Z,4.33
2018-07-31T08:45:19.997Z,4.15
2018-07-31T08:47:48.269Z,4.12
2018-07-31T08:50:16.285Z,4.10
2018-07-31T08:52:44.486Z,4.60
2018-07-31T08:55:12.650Z,4.12
2018-07-31T08:57:40.842Z,4.62
2018-07-31T09:00:09.630Z,4.65
2018-07-31T09:02:37.849Z,4.35
2018-07-31T09:05:06.090Z,4.20
2018-07-31T09:07:34.410Z,3.72
2018-07-31T09:10:02.585Z,3.80
2018-07-31T09:12:30.754Z,3.00
2018-07-31T09:14:58.978Z,3.58
2018-07-31T09:17:27.176Z,3.10
2018-07-31T09:19:55.374Z,3.20
2018-07-31T09:22:23.584Z,2.95
2018-07-31T09:24:51.876Z,3.35
2018-07-31T09:27:20.083Z,2.92
2018-07-31T09:29:48.002Z,3.00
2018-07-31T09:32:20.069Z,3.52
2018-07-31T09:34:48.284Z,3.30
2018-07-31T09:37:16.954Z,2.90
2018-07-31T09:39:45.151Z,2.70
2018-07-31T09:42:13.326Z,4.35
2018-07-31T09:44:41.583Z,2.60
2018-07-31T09:47:09.914Z,2.60
2018-07-31T09:49:38.111Z,2.50
2018-07-31T09:52:06.846Z,2.37
2018-07-31T09:54:35.081Z,2.27
2018-07-31T09:57:03.480Z,2.55
2018-07-31T09:59:31.679Z,2.27
2018-07-31T10:01:59.855Z,2.37
2018-07-31T10:04:28.059Z,2.45
2018-07-31T10:06:56.283Z,2.42
2018-07-31T10:09:24.467Z,2.70
2018-07-31T10:11:52.713Z,2.62
2018-07-31T10:14:20.911Z,2.42
2018-07-31T10:16:49.091Z,2.58
2018-07-31T10:19:17.315Z,2.67
2018-07-31T10:21:45.495Z,2.60
2018-07-31T10:24:13.660Z,2.80
2018-07-31T10:26:41.844Z,2.50
2018-07-31T10:29:10.594Z,2.40
2018-07-31T10:31:38.804Z,2.70
2018-07-31T10:34:07.335Z,2.87
2018-07-31T10:36:35.616Z,2.30
2018-07-31T10:39:05.839Z,2.58
2018-07-31T10:41:34.028Z,2.08
2018-07-31T10:44:02.341Z,2.72
2018-07-31T10:46:30.477Z,2.02
2018-07-31T10:48:58.799Z,2.60
2018-07-31T10:51:26.937Z,2.45
2018-07-31T10:53:55.102Z,2.60
2018-07-31T10:56:23.336Z,2.30
2018-07-31T10:58:51.536Z,2.40
2018-07-31T11:01:19.716Z,2.62
2018-07-31T11:03:47.976Z,2.95
2018-07-31T11:06:16.217Z,2.52
2018-07-31T11:08:44.363Z,2.30
2018-07-31T11:11:12.577Z,2.77
2018-07-31T11:13:40.828Z,2.58
2018-07-31T11:16:11.032Z,2.20
2018-07-31T11:18:39.441Z,2.35
2018-07-31T11:21:14.019Z,2.70
2018-07-31T11:23:41.945Z,2.80
2018-07-31T11:26:09.943Z,2.45
2018-07-31T11:28:37.909Z,2.75
2018-07-31T11:31:06.389Z,3.45
2018-07-31T11:33:34.597Z,2.80
2018-07-31T11:36:02.773Z,2.80
2018-07-31T11:38:31.017Z,3.20
2018-07-31T11:40:59.161Z,3.10
2018-07-31T11:43:27.345Z,3.40
2018-07-31T11:45:55.604Z,3.17
2018-07-31T11:48:23.779Z,3.42
2018-07-31T11:50:51.973Z,3.30
2018-07-31T11:53:20.165Z,3.30
2018-07-31T11:55:48.385Z,3.12
2018-07-31T11:58:16.557Z,3.60
2018-07-31T12:00:44.793Z,3.05
2018-07-31T12:03:12.973Z,2.80
2018-07-31T12:05:41.157Z,2.70
2018-07-31T12:08:09.417Z,2.25
2018-07-31T12:10:37.679Z,2.50
2018-07-31T12:13:05.886Z,2.80
2018-07-31T12:15:34.082Z,2.83
2018-07-31T12:18:02.366Z,2.70
2018-07-31T12:20:30.542Z,2.60
2018-07-31T12:22:58.766Z,2.75
2018-07-31T12:25:26.931Z,2.50
2018-07-31T12:27:55.414Z,2.60
2018-07-31T12:30:32.802Z,3.00
2018-07-31T12:33:03.911Z,2.75
2018-07-31T12:35:31.878Z,2.12
2018-07-31T12:37:59.832Z,2.75
2018-07-31T12:40:27.790Z,2.85
2018-07-31T12:42:55.846Z,2.60
2018-07-31T12:45:23.813Z,2.10
2018-07-31T12:47:52.042Z,2.17
2018-07-31T12:50:20.232Z,2.40
2018-07-31T12:52:48.418Z,2.35
2018-07-31T12:55:16.634Z,2.30
2018-07-31T12:57:44.846Z,2.50
2018-07-31T13:00:13.027Z,2.80
2018-07-31T13:02:40.972Z,2.80
2018-07-31T13:05:08.982Z,2.15
2018-07-31T13:07:42.406Z,1.98
2018-07-31T13:10:12.586Z,2.12
2018-07-31T13:12:42.490Z,2.00
2018-07-31T13:15:10.440Z,2.05
2018-07-31T13:17:38.382Z,2.33
2018-07-31T13:20:07.075Z,2.22
2018-07-31T13:22:35.302Z,2.40
2018-07-31T13:25:03.555Z,2.53
2018-07-31T13:27:31.851Z,1.90
2018-07-31T13:30:00.114Z,2.10
2018-07-31T13:32:28.310Z,2.10
2018-07-31T13:34:56.563Z,2.20
2018-07-31T13:37:24.915Z,1.87
2018-07-31T13:39:53.158Z,2.08
2018-07-31T13:42:21.439Z,1.90
2018-07-31T13:44:49.657Z,2.10
2018-07-31T13:47:17.902Z,2.10
2018-07-31T13:49:46.067Z,1.95
2018-07-31T13:52:14.275Z,2.70
2018-07-31T13:54:42.467Z,1.80
2018-07-31T13:57:10.856Z,1.77
2018-07-31T13:59:39.068Z,2.00
2018-07-31T14:02:07.404Z,2.00
2018-07-31T14:04:35.604Z,2.15
2018-07-31T14:07:03.910Z,1.67
2018-07-31T14:09:32.128Z,2.00
2018-07-31T14:12:00.364Z,1.70
2018-07-31T14:14:28.548Z,1.95
2018-07-31T14:16:56.769Z,2.00
2018-07-31T14:19:25.012Z,2.33
2018-07-31T14:21:53.204Z,2.15
2018-07-31T14:24:21.624Z,1.95
2018-07-31T14:26:49.561Z,2.30
2018-07-31T14:29:17.520Z,2.30
2018-07-31T14:31:45.676Z,1.82
2018-07-31T14:34:13.628Z,1.90
2018-07-31T14:36:41.694Z,2.52
2018-07-31T14:39:11.261Z,2.30
2018-07-31T14:41:39.596Z,1.80
2018-07-31T14:44:07.833Z,4.42
2018-07-31T14:46:36.056Z,2.05
2018-07-31T14:49:04.237Z,1.90
2018-07-31T14:51:32.464Z,1.82
2018-07-31T14:54:00.651Z,2.20
2018-07-31T14:56:28.899Z,1.87
2018-07-31T14:58:57.107Z,1.72
2018-07-31T15:01:25.157Z,1.85
2018-07-31T15:03:53.152Z,2.15
2018-07-31T15:06:21.165Z,2.00
2018-07-31T15:08:49.113Z,1.90
2018-07-31T15:11:17.184Z,2.10
2018-07-31T15:13:45.085Z,2.15
2018-07-31T15:16:13.310Z,2.05
2018-07-31T15:18:41.537Z,2.10
2018-07-31T15:21:09.804Z,1.90
2018-07-31T15:23:37.999Z,2.17
2018-07-31T15:26:06.239Z,1.57
2018-07-31T15:28:34.200Z,2.10
2018-07-31T15:31:02.378Z,2.10
2018-07-31T15:33:30.334Z,2.60
2018-07-31T15:35:58.258Z,2.72
2018-07-31T15:38:26.253Z,2.37
2018-07-31T15:40:54.185Z,2.85
2018-07-31T15:43:22.289Z,2.60
2018-07-31T15:45:50.250Z,2.80
2018-07-31T15:48:18.376Z,2.80
2018-07-31T15:50:46.364Z,2.62
2018-07-31T15:53:14.301Z,3.08
2018-07-31T15:55:42.298Z,3.10
2018-07-31T15:58:10.285Z,3.87
2018-07-31T16:00:38.482Z,3.12
2018-07-31T16:03:06.701Z,3.02
2018-07-31T16:05:34.894Z,4.75
2018-07-31T16:08:03.065Z,3.35
2018-07-31T16:10:31.322Z,3.10
2018-07-31T16:12:59.534Z,3.12
2018-07-31T16:15:27.746Z,3.30
2018-07-31T16:17:56.147Z,3.55
2018-07-31T16:20:24.474Z,3.10
2018-07-31T16:22:52.888Z,3.58
2018-07-31T16:25:20.847Z,3.33
2018-07-31T16:27:48.767Z,4.00
2018-07-31T16:30:16.712Z,3.87
2018-07-31T16:32:44.722Z,3.90
2018-07-31T16:35:12.803Z,3.90
2018-07-31T16:37:40.755Z,3.72
2018-07-31T16:40:08.702Z,4.08
2018-07-31T16:42:36.618Z,3.35
2018-07-31T16:45:04.566Z,3.55
2018-07-31T16:47:32.563Z,3.37
2018-07-31T16:50:00.492Z,3.80
2018-07-31T16:52:28.439Z,3.55
2018-07-31T16:54:56.391Z,3.80
2018-07-31T16:57:24.419Z,3.17
2018-07-31T16:59:52.691Z,3.47
2018-07-31T17:02:20.667Z,3.17
2018-07-31T17:04:48.944Z,3.35
2018-07-31T17:07:16.904Z,3.17
2018-07-31T17:09:44.871Z,3.50
2018-07-31T17:12:12.968Z,3.02
2018-07-31T17:14:40.967Z,3.12
2018-07-31T17:17:08.986Z,2.72
2018-07-31T17:19:36.931Z,3.37
2018-07-31T17:22:04.923Z,3.17
2018-07-31T17:24:32.876Z,3.08
2018-07-31T17:27:01.051Z,3.00
2018-07-31T17:29:29.387Z,2.80
2018-07-31T17:31:57.675Z,3.00
2018-07-31T17:34:25.883Z,2.70
2018-07-31T17:36:54.071Z,2.90
2018-07-31T17:39:22.360Z,2.90
2018-07-31T17:41:50.539Z,2.98
2018-07-31T17:44:18.719Z,3.00
2018-07-31T17:46:47.604Z,2.83
2018-07-31T17:49:15.832Z,2.83
2018-07-31T17:51:44.060Z,2.90
2018-07-31T17:54:12.284Z,3.25
2018-07-31T17:56:40.202Z,2.75
2018-07-31T17:59:09.068Z,2.55
2018-07-31T18:01:37.004Z,2.80
2018-07-31T18:04:05.173Z,4.93
2018-07-31T18:06:33.339Z,2.33
2018-07-31T18:09:01.626Z,2.20
2018-07-31T18:11:29.622Z,2.63
2018-07-31T18:13:57.677Z,2.40
2018-07-31T18:16:25.654Z,2.37
2018-07-31T18:18:53.606Z,2.63
2018-07-31T18:21:21.958Z,2.60
2018-07-31T18:23:49.982Z,2.30
2018-07-31T18:26:17.870Z,2.20
2018-07-31T18:28:45.799Z,2.23
2018-07-31T18:31:13.733Z,2.57
2018-07-31T18:33:41.673Z,2.43
2018-07-31T18:36:09.629Z,2.30
2018-07-31T18:38:37.727Z,2.40
2018-07-31T18:41:05.781Z,2.47
2018-07-31T18:43:33.630Z,2.30
2018-07-31T18:46:01.619Z,2.40
2018-07-31T18:48:29.550Z,2.10
2018-07-31T18:50:57.467Z,2.50
2018-07-31T18:53:25.522Z,1.83
2018-07-31T18:55:53.515Z,2.00
2018-07-31T18:58:21.459Z,2.57
2018-07-31T19:00:49.462Z,2.30
2018-07-31T19:03:17.399Z,2.40
2018-07-31T19:05:45.355Z,2.97
2018-07-31T19:08:13.400Z,2.60
2018-07-31T19:10:41.362Z,2.80
2018-07-31T19:13:09.312Z,2.40
2018-07-31T19:15:37.239Z,2.27
2018-07-31T19:18:05.207Z,2.30
2018-07-31T19:20:33.127Z,2.10
2018-07-31T19:23:01.121Z,2.17
2018-07-31T19:25:29.164Z,2.23
2018-07-31T19:27:57.118Z,2.63
2018-07-31T19:30:25.084Z,2.50
2018-07-31T19:32:53.819Z,2.63
2018-07-31T19:35:21.813Z,1.90
2018-07-31T19:37:49.740Z,2.37
2018-07-31T19:40:17.775Z,2.50
2018-07-31T19:42:45.691Z,2.40
2018-07-31T19:45:13.651Z,2.77
2018-07-31T19:47:41.640Z,2.40
2018-07-31T19:50:09.683Z,2.17
2018-07-31T19:52:37.633Z,2.10
2018-07-31T19:55:05.609Z,2.10
2018-07-31T19:57:33.561Z,2.10
2018-07-31T20:00:01.657Z,2.20
2018-07-31T20:02:29.575Z,2.33
2018-07-31T20:04:57.571Z,2.47
2018-07-31T20:07:25.531Z,2.80
2018-07-31T20:09:54.072Z,2.02
2018-07-31T20:12:22.065Z,2.20
2018-07-31T20:14:50.421Z,2.30
2018-07-31T20:17:18.331Z,2.40
2018-07-31T20:19:46.280Z,2.50
2018-07-31T20:22:14.208Z,2.23
2018-07-31T20:24:42.140Z,2.60
2018-07-31T20:27:10.089Z,2.20
2018-07-31T20:29:38.045Z,2.10
2018-07-31T20:32:05.975Z,2.70
2018-07-31T20:37:09.249Z,2.30
2018-07-31T20:39:37.217Z,2.40
2018-07-31T20:42:05.229Z,1.80
2018-07-31T20:44:33.196Z,1.70
2018-07-31T20:47:01.181Z,2.00
2018-07-31T20:49:29.084Z,2.00
2018-07-31T20:51:57.037Z,2.13
2018-07-31T20:54:25.705Z,1.87
2018-07-31T20:56:54.562Z,2.10
2018-07-31T20:59:22.526Z,2.10
2018-07-31T21:01:50.532Z,2.03
2018-07-31T21:04:18.470Z,2.10
2018-07-31T21:06:46.417Z,2.10
2018-07-31T21:09:18.993Z,1.97
2018-07-31T21:11:47.744Z,2.17
2018-07-31T21:14:15.737Z,2.30
2018-07-31T21:16:44.561Z,1.80
2018-07-31T21:19:12.502Z,2.10
2018-07-31T21:21:40.427Z,1.90
2018-07-31T21:24:08.463Z,2.60
2018-07-31T21:26:36.627Z,2.17
2018-07-31T21:29:04.887Z,2.07
2018-07-31T21:31:33.051Z,1.90
2018-07-31T21:34:01.231Z,2.07
2018-07-31T21:36:29.406Z,1.90
2018-07-31T21:38:57.601Z,1.70
2018-07-31T21:41:25.819Z,1.73
2018-07-31T21:43:53.987Z,2.00
2018-07-31T21:46:22.187Z,1.80
2018-07-31T21:48:50.391Z,1.70
2018-07-31T21:51:18.683Z,2.07
2018-07-31T21:53:47.858Z,1.87
2018-07-31T21:56:16.060Z,1.63
2018-07-31T21:58:44.223Z,1.83
2018-07-31T22:01:12.418Z,1.90
2018-07-31T22:03:40.614Z,1.80
2018-07-31T22:06:08.890Z,2.00
2018-07-31T22:08:37.586Z,1.80
2018-07-31T22:11:06.106Z,1.82
2018-07-31T22:13:34.053Z,1.87
2018-07-31T22:16:02.234Z,1.80
2018-07-31T22:18:30.458Z,1.67
2018-07-31T22:20:58.638Z,1.93
2018-07-31T22:23:26.850Z,2.00
2018-07-31T22:25:55.405Z,1.83
2018-07-31T22:28:23.599Z,1.70
2018-07-31T22:30:52.559Z,1.70
2018-07-31T22:33:20.779Z,1.43
2018-07-31T22:35:49.174Z,1.97
2018-07-31T22:38:17.384Z,1.73
2018-07-31T22:40:45.591Z,1.90
2018-07-31T22:43:13.775Z,1.80
2018-07-31T22:45:41.959Z,1.83
2018-07-31T22:48:10.138Z,1.67
2018-07-31T22:50:39.156Z,2.00
2018-07-31T22:53:07.351Z,1.80
2018-07-31T22:55:35.599Z,1.90
2018-07-31T22:58:03.870Z,1.97
2018-07-31T23:00:32.019Z,2.03
2018-07-31T23:03:00.260Z,1.40
2018-07-31T23:05:28.480Z,2.10
2018-07-31T23:07:56.743Z,1.97
2018-07-31T23:10:24.916Z,1.87
2018-07-31T23:12:53.330Z,1.90
2018-07-31T23:15:21.552Z,2.03
2018-07-31T23:17:50.221Z,2.00
2018-07-31T23:20:18.403Z,1.90
2018-07-31T23:22:49.727Z,1.67
2018-07-31T23:25:17.960Z,2.03
2018-07-31T23:27:46.195Z,1.80
2018-07-31T23:30:14.375Z,1.80
2018-07-31T23:32:43.771Z,2.77
2018-07-31T23:35:11.952Z,1.93
2018-07-31T23:37:40.165Z,1.90
2018-07-31T23:40:08.356Z,2.20
2018-07-31T23:42:36.336Z,1.83
2018-07-31T23:45:04.845Z,1.40
2018-07-31T23:47:33.077Z,1.80
2018-07-31T23:50:01.814Z,2.07
2018-07-31T23:52:30.422Z,2.10
2018-07-31T23:54:58.713Z,1.63
2018-07-31T23:57:26.922Z,1.90
2018-07-31T23:59:56.013Z,1.83
